Coffee Creek, Montana
Current Conditions -  °F | °C
As of 5:54 PM on Friday 24 Oct 2014 (Local Time) from KLWT Reporting Station
Broken Clouds Broken Clouds  
Wind Chill: 54°   Ceiling: 8500
Heat Index: 54°   Visibility: 10mi
Dew Point: 38°   Wind: 0mph
Humidity: 55%   Direction: NA
Pressure: 30.06"   Gusts: NA
Location:  47.34°N, 110.08°W
Report Text: KLWT 242354Z AUTO 00000KT 10SM SCT060 BKN085 12/03 A3006 RMK AO2 SLP169 T01220033 10133 20117 50004
Loading
Personal Weather Stations






























Interactive Weather Map
Tropical Storm Tracking
New forecast layout! Learn more

10-Day Weather Forecast

Advertisements
Track Severe Weather on mobile